sensor_id;sensor_type;location;lat;lon;timestamp;pressure;altitude;pressure_sealevel;temperature;humidity
7026;BME280;3554;42.132;24.786;2024-02-21T00:01:36;100442.25;;;7.58;100.00
7026;BME280;3554;42.132;24.786;2024-02-21T00:04:03;100412.97;;;7.36;100.00
7026;BME280;3554;42.132;24.786;2024-02-21T00:06:31;100478.78;;;7.50;100.00
7026;BME280;3554;42.132;24.786;2024-02-21T00:08:58;100512.56;;;7.59;100.00
7026;BME280;3554;42.132;24.786;2024-02-21T00:11:25;100497.97;;;7.40;100.00
7026;BME280;3554;42.132;24.786;2024-02-21T00:13:52;100550.75;;;7.59;100.00
7026;BME280;3554;42.132;24.786;2024-02-21T00:16:19;100582.72;;;7.76;100.00
7026;BME280;3554;42.132;24.786;2024-02-21T00:18:48;100590.34;;;7.96;100.00
7026;BME280;3554;42.132;24.786;2024-02-21T00:21:15;100589.63;;;7.82;100.00
7026;BME280;3554;42.132;24.786;2024-02-21T00:23:43;100577.47;;;7.81;100.00
7026;BME280;3554;42.132;24.786;2024-02-21T00:26:11;100581.63;;;7.98;100.00
7026;BME280;3554;42.132;24.786;2024-02-21T00:28:38;100568.50;;;8.07;100.00
7026;BME280;3554;42.132;24.786;2024-02-21T00:31:05;100547.63;;;8.09;100.00
7026;BME280;3554;42.132;24.786;2024-02-21T00:33:32;100531.94;;;8.10;100.00
7026;BME280;3554;42.132;24.786;2024-02-21T00:36:00;100515.50;;;8.05;100.00
7026;BME280;3554;42.132;24.786;2024-02-21T00:38:27;100502.41;;;8.11;100.00
7026;BME280;3554;42.132;24.786;2024-02-21T00:40:54;100475.47;;;8.11;100.00
7026;BME280;3554;42.132;24.786;2024-02-21T00:43:21;100441.69;;;8.00;100.00
7026;BME280;3554;42.132;24.786;2024-02-21T00:45:49;100456.31;;;8.13;100.00
7026;BME280;3554;42.132;24.786;2024-02-21T00:48:16;100427.06;;;7.90;100.00
7026;BME280;3554;42.132;24.786;2024-02-21T00:50:43;100448.63;;;8.01;100.00
7026;BME280;3554;42.132;24.786;2024-02-21T00:53:11;100447.81;;;7.98;100.00
7026;BME280;3554;42.132;24.786;2024-02-21T00:55:38;100435.66;;;7.98;100.00
7026;BME280;3554;42.132;24.786;2024-02-21T00:58:05;100437.22;;;8.08;100.00
7026;BME280;3554;42.132;24.786;2024-02-21T01:00:32;100426.91;;;8.02;100.00
7026;BME280;3554;42.132;24.786;2024-02-21T01:02:59;100427.22;;;7.77;100.00
7026;BME280;3554;42.132;24.786;2024-02-21T01:05:26;100443.72;;;7.79;100.00
7026;BME280;3554;42.132;24.786;2024-02-21T01:07:54;100458.47;;;7.81;100.00
7026;BME280;3554;42.132;24.786;2024-02-21T01:10:23;100426.50;;;7.67;100.00
7026;BME280;3554;42.132;24.786;2024-02-21T01:12:50;100436.09;;;7.60;100.00
7026;BME280;3554;42.132;24.786;2024-02-21T01:15:17;100476.69;;;7.80;100.00
7026;BME280;3554;42.132;24.786;2024-02-21T01:17:44;100489.72;;;7.83;100.00
7026;BME280;3554;42.132;24.786;2024-02-21T01:20:11;100495.81;;;7.83;100.00
7026;BME280;3554;42.132;24.786;2024-02-21T01:22:38;100490.53;;;7.88;100.00
7026;BME280;3554;42.132;24.786;2024-02-21T01:25:06;100478.53;;;7.72;100.00
7026;BME280;3554;42.132;24.786;2024-02-21T01:27:35;100492.47;;;7.71;100.00
7026;BME280;3554;42.132;24.786;2024-02-21T01:30:02;100491.63;;;7.69;100.00
7026;BME280;3554;42.132;24.786;2024-02-21T01:32:29;100486.47;;;7.61;100.00
7026;BME280;3554;42.132;24.786;2024-02-21T01:34:56;100484.53;;;7.78;100.00
7026;BME280;3554;42.132;24.786;2024-02-21T01:37:23;100476.72;;;7.81;100.00
7026;BME280;3554;42.132;24.786;2024-02-21T01:39:50;100462.75;;;7.84;100.00
7026;BME280;3554;42.132;24.786;2024-02-21T01:42:17;100426.31;;;7.81;100.00
7026;BME280;3554;42.132;24.786;2024-02-21T01:44:46;100412.34;;;7.86;100.00
7026;BME280;3554;42.132;24.786;2024-02-21T01:47:13;100392.13;;;8.03;100.00
7026;BME280;3554;42.132;24.786;2024-02-21T01:49:40;100357.38;;;8.01;100.00
7026;BME280;3554;42.132;24.786;2024-02-21T01:52:08;100337.94;;;8.23;100.00
7026;BME280;3554;42.132;24.786;2024-02-21T01:54:37;100314.19;;;7.84;100.00
7026;BME280;3554;42.132;24.786;2024-02-21T01:57:05;100314.22;;;7.82;100.00
7026;BME280;3554;42.132;24.786;2024-02-21T01:59:32;100296.22;;;7.66;100.00
7026;BME280;3554;42.132;24.786;2024-02-21T02:02:00;100300.78;;;7.50;100.00
7026;BME280;3554;42.132;24.786;2024-02-21T02:04:27;100313.91;;;7.41;100.00
7026;BME280;3554;42.132;24.786;2024-02-21T02:06:55;100335.47;;;7.53;100.00
7026;BME280;3554;42.132;24.786;2024-02-21T02:09:22;100355.47;;;7.50;100.00
7026;BME280;3554;42.132;24.786;2024-02-21T02:11:49;100372.97;;;7.42;100.00
7026;BME280;3554;42.132;24.786;2024-02-21T02:14:17;100390.50;;;7.28;100.00
7026;BME280;3554;42.132;24.786;2024-02-21T02:16:46;100415.88;;;7.06;100.00
7026;BME280;3554;42.132;24.786;2024-02-21T02:19:15;100455.00;;;6.94;100.00
7026;BME280;3554;42.132;24.786;2024-02-21T02:21:45;100508.00;;;6.84;100.00
7026;BME280;3554;42.132;24.786;2024-02-21T02:24:15;100558.34;;;6.82;100.00
7026;BME280;3554;42.132;24.786;2024-02-21T02:26:42;100617.25;;;6.93;100.00
7026;BME280;3554;42.132;24.786;2024-02-21T02:29:09;100660.59;;;6.99;100.00
7026;BME280;3554;42.132;24.786;2024-02-21T02:31:36;100696.19;;;6.91;100.00
7026;BME280;3554;42.132;24.786;2024-02-21T02:34:04;100742.97;;;7.12;100.00
7026;BME280;3554;42.132;24.786;2024-02-21T02:36:32;100779.31;;;7.33;100.00
7026;BME280;3554;42.132;24.786;2024-02-21T02:39:00;100762.03;;;7.14;100.00
7026;BME280;3554;42.132;24.786;2024-02-21T02:41:28;100795.75;;;7.42;100.00
7026;BME280;3554;42.132;24.786;2024-02-21T02:43:55;100762.00;;;7.23;100.00
7026;BME280;3554;42.132;24.786;2024-02-21T02:46:22;100772.31;;;7.42;100.00
7026;BME280;3554;42.132;24.786;2024-02-21T02:48:49;100761.81;;;7.53;100.00
7026;BME280;3554;42.132;24.786;2024-02-21T02:51:16;100741.84;;;7.56;100.00
7026;BME280;3554;42.132;24.786;2024-02-21T02:53:43;100736.56;;;7.69;100.00
7026;BME280;3554;42.132;24.786;2024-02-21T02:56:14;100721.75;;;7.74;100.00
7026;BME280;3554;42.132;24.786;2024-02-21T02:58:43;100696.56;;;7.73;100.00
7026;BME280;3554;42.132;24.786;2024-02-21T03:01:10;100694.72;;;7.84;100.00
7026;BME280;3554;42.132;24.786;2024-02-21T03:03:37;100629.84;;;7.53;100.00
7026;BME280;3554;42.132;24.786;2024-02-21T03:06:04;100666.13;;;7.76;100.00
7026;BME280;3554;42.132;24.786;2024-02-21T03:08:31;100668.75;;;7.75;100.00
7026;BME280;3554;42.132;24.786;2024-02-21T03:10:59;100667.03;;;7.69;100.00
7026;BME280;3554;42.132;24.786;2024-02-21T03:13:26;100666.94;;;7.83;100.00
7026;BME280;3554;42.132;24.786;2024-02-21T03:15:55;100643.66;;;7.60;100.00
7026;BME280;3554;42.132;24.786;2024-02-21T03:18:22;100642.06;;;7.47;100.00
7026;BME280;3554;42.132;24.786;2024-02-21T03:20:49;100658.41;;;7.64;100.00
7026;BME280;3554;42.132;24.786;2024-02-21T03:23:16;100660.13;;;7.67;100.00
7026;BME280;3554;42.132;24.786;2024-02-21T03:25:42;100654.00;;;7.72;100.00
7026;BME280;3554;42.132;24.786;2024-02-21T03:28:09;100624.47;;;7.73;100.00
7026;BME280;3554;42.132;24.786;2024-02-21T03:30:36;100640.91;;;7.78;100.00
7026;BME280;3554;42.132;24.786;2024-02-21T03:33:05;100624.75;;;7.38;100.00
7026;BME280;3554;42.132;24.786;2024-02-21T03:35:32;100640.50;;;7.22;100.00
7026;BME280;3554;42.132;24.786;2024-02-21T03:37:59;100682.88;;;7.45;100.00
7026;BME280;3554;42.132;24.786;2024-02-21T03:40:26;100682.13;;;7.29;100.00
7026;BME280;3554;42.132;24.786;2024-02-21T03:42:53;100710.88;;;7.05;100.00
7026;BME280;3554;42.132;24.786;2024-02-21T03:45:20;100755.81;;;7.40;100.00
7026;BME280;3554;42.132;24.786;2024-02-21T03:47:47;100760.25;;;7.29;100.00
7026;BME280;3554;42.132;24.786;2024-02-21T03:50:15;100776.63;;;7.48;100.00
7026;BME280;3554;42.132;24.786;2024-02-21T03:52:42;100779.09;;;7.69;100.00
7026;BME280;3554;42.132;24.786;2024-02-21T03:55:09;100763.44;;;7.74;100.00
7026;BME280;3554;42.132;24.786;2024-02-21T03:57:36;100742.56;;;7.81;100.00
7026;BME280;3554;42.132;24.786;2024-02-21T04:00:05;100727.75;;;7.82;100.00
7026;BME280;3554;42.132;24.786;2024-02-21T04:02:36;100700.75;;;7.89;100.00
7026;BME280;3554;42.132;24.786;2024-02-21T04:05:04;100675.69;;;7.76;100.00
7026;BME280;3554;42.132;24.786;2024-02-21T04:07:33;100634.16;;;7.56;100.00
7026;BME280;3554;42.132;24.786;2024-02-21T04:10:00;100625.44;;;7.58;100.00
7026;BME280;3554;42.132;24.786;2024-02-21T04:12:27;100639.31;;;7.60;100.00
7026;BME280;3554;42.132;24.786;2024-02-21T04:14:53;100642.88;;;7.52;100.00
7026;BME280;3554;42.132;24.786;2024-02-21T04:17:20;100630.03;;;7.26;100.00
7026;BME280;3554;42.132;24.786;2024-02-21T04:19:47;100654.50;;;7.03;100.00
7026;BME280;3554;42.132;24.786;2024-02-21T04:22:14;100672.03;;;6.71;100.00
7026;BME280;3554;42.132;24.786;2024-02-21T04:24:43;100711.13;;;6.49;100.00
7026;BME280;3554;42.132;24.786;2024-02-21T04:27:10;100739.75;;;6.33;100.00
7026;BME280;3554;42.132;24.786;2024-02-21T04:29:37;100808.22;;;6.38;100.00
7026;BME280;3554;42.132;24.786;2024-02-21T04:32:04;100842.88;;;6.14;100.00
7026;BME280;3554;42.132;24.786;2024-02-21T04:34:31;100902.69;;;6.29;100.00
7026;BME280;3554;42.132;24.786;2024-02-21T04:36:58;100948.63;;;6.23;100.00
7026;BME280;3554;42.132;24.786;2024-02-21T04:39:25;101002.38;;;6.33;100.00
7026;BME280;3554;42.132;24.786;2024-02-21T04:41:53;101036.13;;;6.24;100.00
7026;BME280;3554;42.132;24.786;2024-02-21T04:44:20;101090.78;;;6.37;100.00
7026;BME280;3554;42.132;24.786;2024-02-21T04:46:48;101074.22;;;6.16;100.00
7026;BME280;3554;42.132;24.786;2024-02-21T04:49:15;101061.13;;;5.87;100.00
7026;BME280;3554;42.132;24.786;2024-02-21T04:51:42;101142.84;;;6.45;100.00
7026;BME280;3554;42.132;24.786;2024-02-21T04:54:09;101155.84;;;6.40;100.00
7026;BME280;3554;42.132;24.786;2024-02-21T04:56:36;101158.47;;;6.51;100.00
7026;BME280;3554;42.132;24.786;2024-02-21T04:59:05;101154.22;;;6.71;100.00
7026;BME280;3554;42.132;24.786;2024-02-21T05:01:32;101140.31;;;6.60;100.00
7026;BME280;3554;42.132;24.786;2024-02-21T05:03:59;101133.34;;;6.61;100.00
7026;BME280;3554;42.132;24.786;2024-02-21T05:06:26;101129.06;;;6.69;100.00
7026;BME280;3554;42.132;24.786;2024-02-21T05:08:53;101112.56;;;6.65;100.00
7026;BME280;3554;42.132;24.786;2024-02-21T05:11:20;101096.91;;;6.51;100.00
7026;BME280;3554;42.132;24.786;2024-02-21T05:13:48;101092.59;;;6.50;100.00
7026;BME280;3554;42.132;24.786;2024-02-21T05:16:16;101096.91;;;6.48;100.00
7026;BME280;3554;42.132;24.786;2024-02-21T05:18:44;101093.41;;;6.40;100.00
7026;BME280;3554;42.132;24.786;2024-02-21T05:21:12;101093.38;;;6.34;100.00
7026;BME280;3554;42.132;24.786;2024-02-21T05:23:39;101093.38;;;6.34;100.00
7026;BME280;3554;42.132;24.786;2024-02-21T05:26:06;101111.69;;;6.63;100.00
7026;BME280;3554;42.132;24.786;2024-02-21T05:28:33;101095.19;;;6.52;100.00
7026;BME280;3554;42.132;24.786;2024-02-21T05:31:00;101088.22;;;6.45;100.00
7026;BME280;3554;42.132;24.786;2024-02-21T05:33:29;101083.06;;;6.51;100.00
7026;BME280;3554;42.132;24.786;2024-02-21T05:35:56;101063.97;;;6.49;100.00
7026;BME280;3554;42.132;24.786;2024-02-21T05:38:22;101007.47;;;6.04;100.00
7026;BME280;3554;42.132;24.786;2024-02-21T05:40:49;101074.41;;;6.58;100.00
7026;BME280;3554;42.132;24.786;2024-02-21T05:43:16;101054.47;;;6.74;100.00
7026;BME280;3554;42.132;24.786;2024-02-21T05:45:43;101025.84;;;6.62;100.00
7026;BME280;3554;42.132;24.786;2024-02-21T05:48:10;100983.34;;;6.50;100.00
7026;BME280;3554;42.132;24.786;2024-02-21T05:50:39;100987.72;;;6.82;100.00
7026;BME280;3554;42.132;24.786;2024-02-21T05:53:06;100967.75;;;6.90;100.00
7026;BME280;3554;42.132;24.786;2024-02-21T05:55:33;100946.91;;;7.14;100.00
7026;BME280;3554;42.132;24.786;2024-02-21T05:58:00;100919.97;;;7.33;100.00
7026;BME280;3554;42.132;24.786;2024-02-21T06:00:27;100874.81;;;7.32;100.00
7026;BME280;3554;42.132;24.786;2024-02-21T06:02:55;100829.63;;;7.47;100.00
7026;BME280;3554;42.132;24.786;2024-02-21T06:05:22;100788.75;;;7.58;100.00
7026;BME280;3554;42.132;24.786;2024-02-21T06:07:50;100750.47;;;7.66;100.00
7026;BME280;3554;42.132;24.786;2024-02-21T06:10:17;100714.81;;;7.74;100.00
7026;BME280;3554;42.132;24.786;2024-02-21T06:12:44;100681.84;;;7.67;100.00
7026;BME280;3554;42.132;24.786;2024-02-21T06:15:11;100649.44;;;7.97;100.00
7026;BME280;3554;42.132;24.786;2024-02-21T06:17:38;100602.59;;;7.88;100.00
7026;BME280;3554;42.132;24.786;2024-02-21T06:20:06;100559.88;;;7.99;100.00
7026;BME280;3554;42.132;24.786;2024-02-21T06:22:33;100503.47;;;7.95;100.00
7026;BME280;3554;42.132;24.786;2024-02-21T06:25:02;100473.84;;;7.99;100.00
7026;BME280;3554;42.132;24.786;2024-02-21T06:27:29;100437.22;;;8.11;100.00
7026;BME280;3554;42.132;24.786;2024-02-21T06:29:56;100399.56;;;8.32;100.00
7026;BME280;3554;42.132;24.786;2024-02-21T06:32:23;100376.84;;;8.40;100.00
7026;BME280;3554;42.132;24.786;2024-02-21T06:34:50;100353.09;;;8.55;100.00
7026;BME280;3554;42.132;24.786;2024-02-21T06:37:17;100315.50;;;8.67;100.00
7026;BME280;3554;42.132;24.786;2024-02-21T06:39:44;100293.66;;;8.71;100.00
7026;BME280;3554;42.132;24.786;2024-02-21T06:42:13;100274.31;;;8.82;100.00
7026;BME280;3554;42.132;24.786;2024-02-21T06:44:40;100253.41;;;8.84;100.00
7026;BME280;3554;42.132;24.786;2024-02-21T06:47:07;100238.94;;;9.10;100.00
7026;BME280;3554;42.132;24.786;2024-02-21T06:49:34;100218.75;;;9.18;100.00
7026;BME280;3554;42.132;24.786;2024-02-21T06:52:03;100205.69;;;9.18;100.00
7026;BME280;3554;42.132;24.786;2024-02-21T06:54:30;100179.38;;;9.26;100.00
7026;BME280;3554;42.132;24.786;2024-02-21T06:56:57;100181.75;;;9.36;100.00
7026;BME280;3554;42.132;24.786;2024-02-21T06:59:25;100164.03;;;9.49;100.00
7026;BME280;3554;42.132;24.786;2024-02-21T07:01:54;100164.16;;;9.44;100.00
7026;BME280;3554;42.132;24.786;2024-02-21T07:04:22;100140.88;;;9.70;100.00
7026;BME280;3554;42.132;24.786;2024-02-21T07:06:48;100134.53;;;9.79;100.00
7026;BME280;3554;42.132;24.786;2024-02-21T07:09:16;100125.72;;;9.83;100.00
7026;BME280;3554;42.132;24.786;2024-02-21T07:11:43;100117.69;;;9.57;100.00
7026;BME280;3554;42.132;24.786;2024-02-21T07:14:10;100105.19;;;9.69;100.00
7026;BME280;3554;42.132;24.786;2024-02-21T07:16:38;100114.16;;;9.58;100.00
7026;BME280;3554;42.132;24.786;2024-02-21T07:19:06;100108.72;;;9.67;100.00
7026;BME280;3554;42.132;24.786;2024-02-21T07:21:33;100102.06;;;9.89;100.00
7026;BME280;3554;42.132;24.786;2024-02-21T07:23:59;100098.34;;;9.98;100.00
7026;BME280;3554;42.132;24.786;2024-02-21T07:26:26;100087.75;;;10.34;100.00
7026;BME280;3554;42.132;24.786;2024-02-21T07:28:53;100073.16;;;10.56;100.00
7026;BME280;3554;42.132;24.786;2024-02-21T07:31:20;100079.81;;;10.66;100.00
7026;BME280;3554;42.132;24.786;2024-02-21T07:33:49;100064.75;;;10.74;100.00
7026;BME280;3554;42.132;24.786;2024-02-21T07:36:23;100044.22;;;10.61;100.00
7026;BME280;3554;42.132;24.786;2024-02-21T07:38:50;100053.09;;;10.85;100.00
7026;BME280;3554;42.132;24.786;2024-02-21T07:41:18;100038.38;;;10.80;100.00
7026;BME280;3554;42.132;24.786;2024-02-21T07:43:45;100045.66;;;10.71;100.00
7026;BME280;3554;42.132;24.786;2024-02-21T07:46:14;100014.81;;;10.53;100.00
7026;BME280;3554;42.132;24.786;2024-02-21T07:48:41;100051.94;;;10.65;100.00
7026;BME280;3554;42.132;24.786;2024-02-21T07:51:09;100059.47;;;10.76;100.00
7026;BME280;3554;42.132;24.786;2024-02-21T07:53:36;100047.09;;;10.53;100.00
7026;BME280;3554;42.132;24.786;2024-02-21T07:56:04;100050.25;;;10.63;100.00
7026;BME280;3554;42.132;24.786;2024-02-21T07:58:31;100047.41;;;10.70;100.00
7026;BME280;3554;42.132;24.786;2024-02-21T08:00:58;100034.50;;;10.64;100.00
7026;BME280;3554;42.132;24.786;2024-02-21T08:03:25;100052.22;;;10.84;100.00
7026;BME280;3554;42.132;24.786;2024-02-21T08:05:52;100053.78;;;10.91;100.00
7026;BME280;3554;42.132;24.786;2024-02-21T08:08:20;100048.84;;;11.08;100.00
7026;BME280;3554;42.132;24.786;2024-02-21T08:10:48;100042.88;;;11.31;100.00
7026;BME280;3554;42.132;24.786;2024-02-21T08:13:15;100059.47;;;11.31;100.00
7026;BME280;3554;42.132;24.786;2024-02-21T08:15:42;100052.41;;;11.33;100.00
7026;BME280;3554;42.132;24.786;2024-02-21T08:18:09;100051.19;;;11.43;100.00
7026;BME280;3554;42.132;24.786;2024-02-21T08:20:36;100045.09;;;11.17;100.00
7026;BME280;3554;42.132;24.786;2024-02-21T08:23:03;100052.13;;;11.15;100.00
7026;BME280;3554;42.132;24.786;2024-02-21T08:25:31;100059.75;;;11.22;100.00
7026;BME280;3554;42.132;24.786;2024-02-21T08:27:59;100059.75;;;11.48;100.00
7026;BME280;3554;42.132;24.786;2024-02-21T08:30:26;100056.09;;;11.28;100.00
7026;BME280;3554;42.132;24.786;2024-02-21T08:32:53;100062.25;;;11.53;100.00
7026;BME280;3554;42.132;24.786;2024-02-21T08:35:20;100056.13;;;11.78;100.00
7026;BME280;3554;42.132;24.786;2024-02-21T08:37:48;100062.75;;;11.64;100.00
7026;BME280;3554;42.132;24.786;2024-02-21T08:40:15;100023.81;;;11.52;100.00
7026;BME280;3554;42.132;24.786;2024-02-21T08:42:47;100068.22;;;11.82;100.00
7026;BME280;3554;42.132;24.786;2024-02-21T08:45:15;100063.03;;;11.81;100.00
7026;BME280;3554;42.132;24.786;2024-02-21T08:47:42;100056.69;;;11.88;100.00
7026;BME280;3554;42.132;24.786;2024-02-21T08:50:10;100058.38;;;11.89;100.00
7026;BME280;3554;42.132;24.786;2024-02-21T08:52:37;100049.06;;;11.80;100.00
7026;BME280;3554;42.132;24.786;2024-02-21T08:55:05;100056.28;;;11.99;100.00
7026;BME280;3554;42.132;24.786;2024-02-21T08:57:32;100067.97;;;12.15;100.00
7026;BME280;3554;42.132;24.786;2024-02-21T09:00:05;100069.41;;;12.23;100.00
7026;BME280;3554;42.132;24.786;2024-02-21T09:02:36;100069.50;;;12.20;100.00
7026;BME280;3554;42.132;24.786;2024-02-21T09:05:04;100070.94;;;12.29;100.00
7026;BME280;3554;42.132;24.786;2024-02-21T09:07:32;100073.34;;;12.35;100.00
7026;BME280;3554;42.132;24.786;2024-02-21T09:09:59;100073.25;;;12.38;100.00
7026;BME280;3554;42.132;24.786;2024-02-21T09:12:26;100074.22;;;12.35;100.00
7026;BME280;3554;42.132;24.786;2024-02-21T09:14:53;100067.38;;;12.31;100.00
7026;BME280;3554;42.132;24.786;2024-02-21T09:17:21;100048.97;;;12.08;100.00
7026;BME280;3554;42.132;24.786;2024-02-21T09:19:50;100070.72;;;12.12;100.00
7026;BME280;3554;42.132;24.786;2024-02-21T09:22:17;100052.28;;;12.13;100.00
7026;BME280;3554;42.132;24.786;2024-02-21T09:24:44;100062.03;;;12.10;100.00
7026;BME280;3554;42.132;24.786;2024-02-21T09:27:13;100059.53;;;12.07;100.00
7026;BME280;3554;42.132;24.786;2024-02-21T09:29:40;100048.97;;;12.08;100.00
7026;BME280;3554;42.132;24.786;2024-02-21T09:32:07;100055.59;;;12.18;100.00
7026;BME280;3554;42.132;24.786;2024-02-21T09:34:35;100048.72;;;12.14;100.00
7026;BME280;3554;42.132;24.786;2024-02-21T09:37:02;100051.88;;;12.24;100.00
7026;BME280;3554;42.132;24.786;2024-02-21T09:39:29;100052.75;;;12.47;100.00
7026;BME280;3554;42.132;24.786;2024-02-21T09:41:59;100054.97;;;12.35;100.00
7026;BME280;3554;42.132;24.786;2024-02-21T09:44:30;100051.69;;;12.28;100.00
7026;BME280;3554;42.132;24.786;2024-02-21T09:47:02;100051.09;;;12.45;100.00
7026;BME280;3554;42.132;24.786;2024-02-21T09:49:31;100035.34;;;12.45;100.00
7026;BME280;3554;42.132;24.786;2024-02-21T09:52:01;100047.59;;;12.67;100.00
7026;BME280;3554;42.132;24.786;2024-02-21T09:54:29;100055.72;;;12.61;100.00
7026;BME280;3554;42.132;24.786;2024-02-21T09:56:56;100042.59;;;12.38;100.00
7026;BME280;3554;42.132;24.786;2024-02-21T09:59:24;100045.22;;;12.61;100.00
7026;BME280;3554;42.132;24.786;2024-02-21T10:01:51;100047.16;;;12.79;100.00
7026;BME280;3554;42.132;24.786;2024-02-21T10:04:19;100048.25;;;12.96;100.00
7026;BME280;3554;42.132;24.786;2024-02-21T10:06:46;100047.13;;;13.03;100.00
7026;BME280;3554;42.132;24.786;2024-02-21T10:09:22;100039.84;;;13.09;100.00
7026;BME280;3554;42.132;24.786;2024-02-21T10:11:49;100037.16;;;13.11;100.00
7026;BME280;3554;42.132;24.786;2024-02-21T10:14:16;100031.03;;;13.10;100.00
7026;BME280;3554;42.132;24.786;2024-02-21T10:16:44;100025.00;;;13.08;100.00
7026;BME280;3554;42.132;24.786;2024-02-21T10:19:18;100030.56;;;13.22;100.00
7026;BME280;3554;42.132;24.786;2024-02-21T10:22:01;100024.31;;;13.25;100.00
7026;BME280;3554;42.132;24.786;2024-02-21T10:24:30;100014.78;;;13.22;100.00
7026;BME280;3554;42.132;24.786;2024-02-21T10:27:04;100020.25;;;13.38;100.00
7026;BME280;3554;42.132;24.786;2024-02-21T10:29:33;99971.72;;;13.25;100.00
7026;BME280;3554;42.132;24.786;2024-02-21T10:32:08;100001.34;;;13.50;100.00
7026;BME280;3554;42.132;24.786;2024-02-21T10:34:35;99994.25;;;13.52;100.00
7026;BME280;3554;42.132;24.786;2024-02-21T10:37:03;99987.13;;;13.54;100.00
7026;BME280;3554;42.132;24.786;2024-02-21T10:39:32;99980.16;;;13.53;100.00
7026;BME280;3554;42.132;24.786;2024-02-21T10:42:00;99935.91;;;13.42;100.00
7026;BME280;3554;42.132;24.786;2024-02-21T10:44:30;99963.00;;;13.44;100.00
7026;BME280;3554;42.132;24.786;2024-02-21T10:46:58;99968.41;;;13.61;100.00
7026;BME280;3554;42.132;24.786;2024-02-21T10:49:26;99978.00;;;13.82;100.00
7026;BME280;3554;42.132;24.786;2024-02-21T10:51:55;99916.78;;;13.39;100.00
7026;BME280;3554;42.132;24.786;2024-02-21T10:54:35;99969.91;;;13.67;100.00
7026;BME280;3554;42.132;24.786;2024-02-21T10:57:06;99969.50;;;13.76;100.00
7026;BME280;3554;42.132;24.786;2024-02-21T10:59:37;99967.63;;;13.98;100.00
7026;BME280;3554;42.132;24.786;2024-02-21T11:02:07;99960.31;;;14.05;100.00
7026;BME280;3554;42.132;24.786;2024-02-21T11:04:35;99933.03;;;13.87;100.00
7026;BME280;3554;42.132;24.786;2024-02-21T11:07:03;99948.41;;;13.96;100.00
7026;BME280;3554;42.132;24.786;2024-02-21T11:09:32;99943.53;;;14.07;100.00
7026;BME280;3554;42.132;24.786;2024-02-21T11:12:02;99946.88;;;14.11;100.00
7026;BME280;3554;42.132;24.786;2024-02-21T11:14:30;99929.09;;;13.97;100.00
7026;BME280;3554;42.132;24.786;2024-02-21T11:16:58;99926.16;;;14.03;100.00
7026;BME280;3554;42.132;24.786;2024-02-21T11:19:26;99934.88;;;13.85;100.00
7026;BME280;3554;42.132;24.786;2024-02-21T11:21:55;99935.28;;;13.76;100.00
7026;BME280;3554;42.132;24.786;2024-02-21T11:24:27;99932.47;;;13.80;100.00
7026;BME280;3554;42.132;24.786;2024-02-21T11:26:54;99927.88;;;14.04;100.00
7026;BME280;3554;42.132;24.786;2024-02-21T11:29:25;99933.47;;;14.15;100.00
7026;BME280;3554;42.132;24.786;2024-02-21T11:31:54;99929.31;;;14.11;100.00
7026;BME280;3554;42.132;24.786;2024-02-21T11:34:21;99923.28;;;14.28;100.00
7026;BME280;3554;42.132;24.786;2024-02-21T11:36:49;99883.41;;;14.17;100.00
7026;BME280;3554;42.132;24.786;2024-02-21T11:39:23;99911.31;;;14.39;100.00
7026;BME280;3554;42.132;24.786;2024-02-21T11:42:03;99918.78;;;14.48;100.00
7026;BME280;3554;42.132;24.786;2024-02-21T11:44:32;99908.88;;;14.35;100.00
7026;BME280;3554;42.132;24.786;2024-02-21T11:46:59;99906.13;;;14.38;100.00
7026;BME280;3554;42.132;24.786;2024-02-21T11:49:28;99897.44;;;14.36;100.00
7026;BME280;3554;42.132;24.786;2024-02-21T11:51:59;99865.97;;;14.14;100.00
7026;BME280;3554;42.132;24.786;2024-02-21T11:54:29;99903.63;;;14.53;100.00
7026;BME280;3554;42.132;24.786;2024-02-21T11:56:56;99856.00;;;14.21;100.00
7026;BME280;3554;42.132;24.786;2024-02-21T11:59:23;99907.31;;;14.49;100.00
7026;BME280;3554;42.132;24.786;2024-02-21T12:01:53;99870.59;;;14.09;100.00
7026;BME280;3554;42.132;24.786;2024-02-21T12:04:20;99899.34;;;14.51;100.00
7026;BME280;3554;42.132;24.786;2024-02-21T12:06:49;99893.38;;;14.47;100.00
7026;BME280;3554;42.132;24.786;2024-02-21T12:09:16;99905.06;;;14.42;100.00
7026;BME280;3554;42.132;24.786;2024-02-21T12:11:43;99887.19;;;14.30;100.00
7026;BME280;3554;42.132;24.786;2024-02-21T12:14:11;99885.97;;;14.55;100.00
7026;BME280;3554;42.132;24.786;2024-02-21T12:16:38;99848.97;;;14.40;100.00
7026;BME280;3554;42.132;24.786;2024-02-21T12:19:07;99885.41;;;14.84;100.00
7026;BME280;3554;42.132;24.786;2024-02-21T12:21:35;99878.94;;;14.90;100.00
7026;BME280;3554;42.132;24.786;2024-02-21T12:24:11;99872.13;;;15.03;100.00
7026;BME280;3554;42.132;24.786;2024-02-21T12:26:39;99870.56;;;14.82;94.77
7026;BME280;3554;42.132;24.786;2024-02-21T12:29:06;99851.19;;;14.83;99.93
7026;BME280;3554;42.132;24.786;2024-02-21T12:31:34;99869.63;;;15.17;99.58
7026;BME280;3554;42.132;24.786;2024-02-21T12:34:02;99861.75;;;15.00;100.00
7026;BME280;3554;42.132;24.786;2024-02-21T12:36:30;99856.06;;;14.90;100.00
7026;BME280;3554;42.132;24.786;2024-02-21T12:38:57;99857.69;;;14.76;98.68
7026;BME280;3554;42.132;24.786;2024-02-21T12:41:25;99808.06;;;14.67;99.18
7026;BME280;3554;42.132;24.786;2024-02-21T12:43:52;99856.16;;;14.18;100.00
7026;BME280;3554;42.132;24.786;2024-02-21T12:46:19;99846.25;;;13.48;100.00
7026;BME280;3554;42.132;24.786;2024-02-21T12:48:46;99788.06;;;13.17;100.00
7026;BME280;3554;42.132;24.786;2024-02-21T12:51:13;99832.81;;;13.73;100.00
7026;BME280;3554;42.132;24.786;2024-02-21T12:53:42;99840.88;;;13.70;100.00
7026;BME280;3554;42.132;24.786;2024-02-21T12:56:09;99825.13;;;13.50;100.00
7026;BME280;3554;42.132;24.786;2024-02-21T12:58:36;99821.25;;;13.77;100.00
7026;BME280;3554;42.132;24.786;2024-02-21T13:01:03;99828.91;;;13.63;100.00